createdAt,value
2022-12-18T00:01:14.603Z,6.72
2022-12-18T00:03:42.038Z,7.70
2022-12-18T00:06:09.934Z,8.57
2022-12-18T00:08:37.110Z,9.00
2022-12-18T00:11:14.112Z,7.22
2022-12-18T00:13:41.945Z,7.95
2022-12-18T00:16:12.641Z,7.88
2022-12-18T00:18:40.684Z,8.43
2022-12-18T00:21:10.583Z,8.43
2022-12-18T00:23:38.918Z,7.18
2022-12-18T00:26:09.226Z,7.72
2022-12-18T00:28:36.655Z,6.50
2022-12-18T00:31:09.807Z,8.68
2022-12-18T00:33:38.111Z,9.18
2022-12-18T00:36:14.965Z,8.27
2022-12-18T00:38:42.785Z,7.10
2022-12-18T00:41:11.533Z,8.43
2022-12-18T00:43:39.974Z,7.85
2022-12-18T00:46:07.661Z,6.28
2022-12-18T00:48:34.767Z,7.40
2022-12-18T00:51:01.769Z,8.13
2022-12-18T00:53:28.856Z,7.20
2022-12-18T00:55:56.932Z,7.07
2022-12-18T00:58:24.024Z,6.72
2022-12-18T01:00:51.232Z,6.78
2022-12-18T01:03:18.319Z,6.70
2022-12-18T01:05:45.409Z,4.82
2022-12-18T01:08:12.419Z,6.15
2022-12-18T01:10:42.139Z,6.75
2022-12-18T01:13:09.135Z,6.75
2022-12-18T01:15:36.323Z,8.18
2022-12-18T01:18:03.374Z,5.82
2022-12-18T01:20:30.491Z,6.03
2022-12-18T01:22:57.480Z,5.88
2022-12-18T01:25:24.802Z,5.38
2022-12-18T01:27:51.815Z,6.40
2022-12-18T01:30:18.971Z,6.13
2022-12-18T01:32:46.101Z,6.45
2022-12-18T01:35:13.132Z,5.78
2022-12-18T01:37:40.404Z,6.68
2022-12-18T01:40:08.387Z,6.78
2022-12-18T01:42:35.562Z,6.75
2022-12-18T01:45:07.565Z,6.43
2022-12-18T01:47:40.713Z,5.85
2022-12-18T01:50:18.571Z,5.80
2022-12-18T01:53:18.984Z,4.65
2022-12-18T01:55:54.962Z,4.82
2022-12-18T01:58:42.316Z,5.55
2022-12-18T02:01:09.874Z,6.10
2022-12-18T02:03:37.596Z,5.57
2022-12-18T02:06:30.675Z,6.70
2022-12-18T02:09:20.717Z,5.88
2022-12-18T02:12:20.712Z,5.53
2022-12-18T02:14:57.000Z,5.72
2022-12-18T02:17:33.580Z,5.35
2022-12-18T02:20:06.164Z,6.18
2022-12-18T02:22:54.705Z,7.95
2022-12-18T02:25:40.150Z,4.97
2022-12-18T02:28:11.008Z,5.35
2022-12-18T02:30:40.488Z,6.03
2022-12-18T02:33:12.281Z,6.40
2022-12-18T02:35:42.096Z,4.43
2022-12-18T02:38:10.410Z,5.47
2022-12-18T02:40:39.926Z,4.93
2022-12-18T02:43:15.494Z,5.43
2022-12-18T02:45:59.884Z,6.53
2022-12-18T02:48:36.292Z,5.03
2022-12-18T02:51:25.018Z,6.25
2022-12-18T02:56:43.892Z,5.53
2022-12-18T02:59:20.480Z,6.40
2022-12-18T03:02:23.816Z,6.97
2022-12-18T03:05:03.699Z,5.22
2022-12-18T03:07:48.471Z,6.25
2022-12-18T03:10:21.155Z,7.53
2022-12-18T03:12:55.691Z,6.47
2022-12-18T03:15:31.173Z,6.20
2022-12-18T03:18:22.645Z,7.38
2022-12-18T03:20:52.377Z,5.68
2022-12-18T03:23:28.920Z,4.05
2022-12-18T03:26:07.168Z,5.93
2022-12-18T03:28:45.349Z,5.07
2022-12-18T03:31:15.215Z,6.25
2022-12-18T03:33:52.573Z,5.15
2022-12-18T03:36:20.865Z,5.10
2022-12-18T03:38:48.374Z,4.47
2022-12-18T03:41:20.926Z,6.50
2022-12-18T03:44:47.754Z,5.70
2022-12-18T03:47:22.429Z,5.45
2022-12-18T03:50:00.742Z,4.90
2022-12-18T03:52:39.510Z,6.05
2022-12-18T03:55:10.825Z,4.78
2022-12-18T03:57:41.516Z,5.00
2022-12-18T04:00:19.277Z,5.40
2022-12-18T04:03:03.148Z,6.00
2022-12-18T04:05:40.014Z,6.75
2022-12-18T04:08:08.247Z,5.07
2022-12-18T04:10:39.130Z,5.68
2022-12-18T04:13:06.226Z,5.55
2022-12-18T04:15:36.384Z,5.20
2022-12-18T04:18:05.088Z,5.13
2022-12-18T04:20:39.715Z,5.22
2022-12-18T04:23:06.782Z,5.53
2022-12-18T04:25:34.366Z,6.63
2022-12-18T04:28:07.566Z,5.95
2022-12-18T04:30:36.021Z,5.63
2022-12-18T04:33:03.150Z,4.50
2022-12-18T04:35:31.628Z,5.43
2022-12-18T04:37:59.836Z,6.03
2022-12-18T04:40:27.827Z,4.85
2022-12-18T04:42:55.444Z,5.90
2022-12-18T04:45:22.576Z,6.22
2022-12-18T04:47:49.688Z,5.25
2022-12-18T04:50:16.823Z,4.20
2022-12-18T04:52:46.130Z,5.57
2022-12-18T04:55:13.938Z,4.40
2022-12-18T04:57:40.986Z,6.20
2022-12-18T05:00:08.712Z,4.15
2022-12-18T05:02:35.961Z,4.50
2022-12-18T05:05:03.635Z,4.95
2022-12-18T05:07:30.700Z,4.85
2022-12-18T05:09:57.758Z,4.80
2022-12-18T05:12:24.924Z,5.32
2022-12-18T05:14:52.126Z,4.95
2022-12-18T05:17:19.162Z,5.35
2022-12-18T05:19:46.161Z,4.65
2022-12-18T05:22:13.213Z,4.45
2022-12-18T05:24:40.250Z,4.85
2022-12-18T05:27:07.354Z,5.72
2022-12-18T05:29:34.370Z,6.00
2022-12-18T05:32:01.366Z,5.53
2022-12-18T05:34:28.356Z,5.38
2022-12-18T05:36:55.354Z,4.53
2022-12-18T05:39:22.436Z,4.90
2022-12-18T05:41:49.443Z,6.10
2022-12-18T05:44:16.512Z,4.32
2022-12-18T05:46:43.607Z,5.85
2022-12-18T05:49:10.692Z,5.43
2022-12-18T05:51:37.837Z,5.45
2022-12-18T05:54:04.934Z,5.70
2022-12-18T05:56:32.746Z,5.22
2022-12-18T05:59:00.130Z,5.03
2022-12-18T06:01:27.944Z,5.35
2022-12-18T06:03:56.434Z,5.28
2022-12-18T06:06:26.733Z,5.15
2022-12-18T06:08:54.881Z,5.78
2022-12-18T06:11:27.130Z,5.03
2022-12-18T06:13:58.600Z,4.93
2022-12-18T06:16:25.958Z,6.05
2022-12-18T06:18:53.013Z,4.78
2022-12-18T06:21:20.275Z,5.38
2022-12-18T06:23:47.399Z,5.63
2022-12-18T06:26:15.474Z,4.05
2022-12-18T06:28:42.960Z,4.82
2022-12-18T06:31:10.877Z,5.25
2022-12-18T06:33:39.480Z,4.68
2022-12-18T06:36:12.784Z,4.85
2022-12-18T06:38:43.229Z,4.53
2022-12-18T06:41:22.084Z,4.45
2022-12-18T06:43:49.619Z,6.22
2022-12-18T06:46:17.009Z,4.75
2022-12-18T06:48:44.177Z,4.97
2022-12-18T06:51:11.820Z,4.60
2022-12-18T06:53:39.344Z,5.75
2022-12-18T06:56:10.576Z,4.75
2022-12-18T06:58:39.737Z,4.30
2022-12-18T07:01:09.059Z,3.83
2022-12-18T07:03:36.307Z,5.22
2022-12-18T07:06:03.867Z,5.95
2022-12-18T07:08:31.944Z,5.53
2022-12-18T07:10:59.228Z,5.28
2022-12-18T07:13:26.448Z,4.88
2022-12-18T07:15:53.451Z,5.70
2022-12-18T07:18:20.588Z,5.05
2022-12-18T07:20:47.795Z,5.03
2022-12-18T07:23:15.945Z,4.60
2022-12-18T07:25:42.933Z,4.85
2022-12-18T07:28:14.220Z,4.38
2022-12-18T07:30:44.164Z,4.75
2022-12-18T07:33:11.206Z,5.13
2022-12-18T07:35:38.282Z,5.03
2022-12-18T07:38:05.331Z,5.68
2022-12-18T07:40:32.352Z,5.40
2022-12-18T07:42:59.390Z,5.38
2022-12-18T07:45:26.448Z,5.13
2022-12-18T07:47:53.526Z,4.97
2022-12-18T07:50:20.506Z,4.47
2022-12-18T07:52:47.726Z,5.13
2022-12-18T07:55:17.845Z,4.75
2022-12-18T07:57:55.381Z,4.07
2022-12-18T08:00:26.436Z,4.53
2022-12-18T08:02:56.002Z,5.07
2022-12-18T08:05:23.954Z,4.25
2022-12-18T08:07:51.115Z,4.75
2022-12-18T08:10:18.228Z,4.90
2022-12-18T08:12:45.414Z,5.25
2022-12-18T08:15:12.493Z,5.45
2022-12-18T08:17:39.527Z,4.65
2022-12-18T08:20:06.992Z,5.15
2022-12-18T08:22:36.591Z,5.18
2022-12-18T08:25:04.944Z,6.65
2022-12-18T08:27:32.459Z,5.13
2022-12-18T08:30:00.000Z,4.63
2022-12-18T08:32:28.559Z,4.43
2022-12-18T08:34:55.735Z,5.07
2022-12-18T08:37:22.837Z,5.25
2022-12-18T08:39:50.146Z,4.72
2022-12-18T08:42:36.166Z,5.47
2022-12-18T08:45:04.476Z,5.68
2022-12-18T08:47:31.554Z,5.78
2022-12-18T08:49:58.628Z,4.45
2022-12-18T08:52:25.792Z,4.45
2022-12-18T08:54:52.795Z,5.88
2022-12-18T08:57:21.179Z,5.10
2022-12-18T08:59:49.402Z,4.63
2022-12-18T09:02:16.797Z,5.50
2022-12-18T09:04:46.765Z,4.10
2022-12-18T09:07:13.991Z,4.65
2022-12-18T09:09:40.995Z,5.18
2022-12-18T09:12:08.142Z,4.18
2022-12-18T09:14:35.163Z,4.50
2022-12-18T09:17:02.299Z,4.57
2022-12-18T09:19:29.440Z,5.57
2022-12-18T09:21:56.492Z,4.43
2022-12-18T09:24:23.574Z,5.10
2022-12-18T09:26:57.794Z,4.90
2022-12-18T09:29:25.227Z,4.50
2022-12-18T09:31:52.282Z,5.32
2022-12-18T09:34:21.993Z,4.90
2022-12-18T09:36:49.975Z,4.95
2022-12-18T09:39:17.502Z,5.55
2022-12-18T09:41:55.877Z,4.28
2022-12-18T09:44:36.805Z,4.88
2022-12-18T09:47:29.922Z,4.88
2022-12-18T09:50:07.212Z,3.78
2022-12-18T09:52:40.883Z,4.05
2022-12-18T09:55:25.960Z,4.18
2022-12-18T09:57:57.593Z,4.13
2022-12-18T10:00:26.192Z,4.85
2022-12-18T10:02:59.868Z,4.22
2022-12-18T10:05:33.143Z,4.50
2022-12-18T10:08:19.021Z,3.90
2022-12-18T10:11:04.736Z,4.20
2022-12-18T10:13:43.230Z,5.22
2022-12-18T10:16:14.463Z,4.80
2022-12-18T10:19:19.498Z,4.57
2022-12-18T10:21:57.662Z,3.70
2022-12-18T10:24:43.578Z,4.55
2022-12-18T10:27:15.964Z,4.70
2022-12-18T10:29:45.680Z,3.78
2022-12-18T10:32:18.835Z,4.13
2022-12-18T10:34:48.126Z,4.90
2022-12-18T10:37:18.727Z,4.25
2022-12-18T10:39:47.270Z,4.95
2022-12-18T10:42:20.036Z,3.65
2022-12-18T10:44:47.219Z,4.93
2022-12-18T10:47:19.618Z,4.93
2022-12-18T10:49:53.970Z,4.72
2022-12-18T10:52:26.205Z,3.78
2022-12-18T10:54:56.592Z,4.13
2022-12-18T10:57:38.670Z,3.63
2022-12-18T11:00:28.766Z,3.30
2022-12-18T11:02:57.051Z,4.15
2022-12-18T11:05:37.890Z,4.30
2022-12-18T11:08:05.271Z,3.53
2022-12-18T11:10:38.797Z,4.72
2022-12-18T11:13:21.755Z,4.05
2022-12-18T11:15:49.685Z,3.05
2022-12-18T11:18:32.063Z,4.40
2022-12-18T11:21:09.053Z,4.90
2022-12-18T11:23:38.704Z,4.45
2022-12-18T11:26:07.176Z,4.28
2022-12-18T11:28:44.743Z,4.18
2022-12-18T11:31:26.246Z,4.35
2022-12-18T11:34:29.732Z,3.75
2022-12-18T11:39:51.061Z,3.35
2022-12-18T11:42:39.780Z,4.53
2022-12-18T11:45:13.865Z,4.43
2022-12-18T11:47:47.118Z,3.22
2022-12-18T11:52:44.135Z,4.35
2022-12-18T11:55:34.149Z,4.07
2022-12-18T11:58:13.732Z,3.67
2022-12-18T12:00:59.351Z,4.05
2022-12-18T12:04:03.581Z,3.85
2022-12-18T12:06:58.670Z,4.28
2022-12-18T12:09:33.073Z,3.85
2022-12-18T12:12:48.568Z,3.45
2022-12-18T12:15:28.650Z,3.55
2022-12-18T12:18:11.685Z,3.28
2022-12-18T12:21:14.578Z,3.83
2022-12-18T12:24:09.271Z,3.33
2022-12-18T12:27:00.508Z,3.28
2022-12-18T12:29:39.400Z,3.97
2022-12-18T12:32:16.379Z,3.53
2022-12-18T12:34:56.177Z,5.32
2022-12-18T12:37:52.525Z,4.25
2022-12-18T12:40:50.122Z,4.00
2022-12-18T12:43:15.288Z,2.40
2022-12-18T12:45:49.447Z,3.28
2022-12-18T12:48:33.140Z,3.53
2022-12-18T12:51:04.434Z,4.40
2022-12-18T12:53:37.063Z,3.17
2022-12-18T12:56:06.826Z,3.55
2022-12-18T12:58:39.965Z,2.75
2022-12-18T13:01:24.478Z,3.30
2022-12-18T13:04:31.341Z,3.50
2022-12-18T13:07:04.487Z,3.40
2022-12-18T13:09:34.427Z,3.20
2022-12-18T13:12:25.355Z,3.08
2022-12-18T13:14:52.537Z,3.20
2022-12-18T13:17:22.630Z,3.00
2022-12-18T13:20:05.808Z,3.30
2022-12-18T13:22:45.223Z,2.78
2022-12-18T13:25:38.233Z,2.55
2022-12-18T13:28:15.154Z,3.45
2022-12-18T13:30:42.237Z,3.13
2022-12-18T13:33:15.845Z,3.25
2022-12-18T13:36:01.328Z,3.72
2022-12-18T13:38:36.533Z,3.65
2022-12-18T13:41:22.652Z,2.90
2022-12-18T13:43:52.476Z,2.80
2022-12-18T13:46:43.106Z,2.78
2022-12-18T13:49:13.301Z,3.38
2022-12-18T13:51:47.869Z,4.25
2022-12-18T13:54:28.093Z,3.38
2022-12-18T13:56:55.148Z,3.35
2022-12-18T13:59:24.769Z,3.83
2022-12-18T14:02:02.841Z,4.63
2022-12-18T14:04:36.031Z,3.45
2022-12-18T14:07:05.070Z,5.43
2022-12-18T14:09:37.304Z,3.20
2022-12-18T14:12:25.580Z,4.85
2022-12-18T14:14:54.982Z,3.45
2022-12-18T14:17:24.481Z,4.18
2022-12-18T14:19:52.683Z,5.75
2022-12-18T14:22:30.678Z,4.68
2022-12-18T14:25:15.567Z,5.65
2022-12-18T14:27:45.839Z,6.10
2022-12-18T14:30:26.759Z,5.07
2022-12-18T14:33:09.190Z,5.03
2022-12-18T14:35:39.432Z,6.13
2022-12-18T14:38:22.372Z,5.70
2022-12-18T14:41:00.377Z,5.93
2022-12-18T14:43:30.133Z,5.68
2022-12-18T14:45:58.723Z,5.15
2022-12-18T14:48:26.229Z,5.03
2022-12-18T14:51:06.589Z,5.78
2022-12-18T14:53:48.967Z,5.95
2022-12-18T14:56:25.794Z,4.95
2022-12-18T14:59:04.779Z,5.43
2022-12-18T15:01:36.160Z,4.57
2022-12-18T15:04:07.234Z,5.20
2022-12-18T15:06:37.494Z,4.97
2022-12-18T15:09:21.614Z,4.18
2022-12-18T15:11:49.403Z,3.33
2022-12-18T15:14:25.419Z,3.85
2022-12-18T15:16:55.982Z,4.93
2022-12-18T15:19:32.525Z,4.60
2022-12-18T15:22:05.881Z,4.82
2022-12-18T15:24:34.124Z,4.25
2022-12-18T15:27:02.007Z,3.10
2022-12-18T15:29:29.225Z,4.97
2022-12-18T15:32:01.911Z,4.10
2022-12-18T15:34:30.456Z,4.20
2022-12-18T15:36:57.746Z,3.78
2022-12-18T15:39:26.382Z,4.65
2022-12-18T15:42:12.247Z,3.03
2022-12-18T15:44:39.521Z,4.35
2022-12-18T15:47:13.270Z,3.45
2022-12-18T15:49:42.565Z,3.58
2022-12-18T15:52:14.340Z,3.90
2022-12-18T15:55:00.018Z,4.55
2022-12-18T15:57:30.277Z,4.70
2022-12-18T16:00:00.531Z,3.42
2022-12-18T16:02:29.062Z,3.15
2022-12-18T16:04:56.468Z,3.38
2022-12-18T16:07:25.582Z,4.30
2022-12-18T16:09:55.475Z,3.53
2022-12-18T16:12:26.512Z,4.47
2022-12-18T16:14:53.846Z,4.38
2022-12-18T16:17:21.472Z,4.80
2022-12-18T16:19:51.344Z,3.88
2022-12-18T16:22:30.024Z,4.57
2022-12-18T16:24:58.178Z,4.47
2022-12-18T16:27:25.820Z,3.60
2022-12-18T16:29:53.097Z,4.03
2022-12-18T16:32:25.831Z,4.57
2022-12-18T16:35:01.303Z,3.90
2022-12-18T16:37:31.835Z,3.97
2022-12-18T16:39:59.002Z,4.30
2022-12-18T16:42:29.306Z,3.70
2022-12-18T16:45:11.856Z,3.25
2022-12-18T16:51:06.113Z,4.53
2022-12-18T16:53:36.499Z,4.18
2022-12-18T16:56:07.396Z,3.65
2022-12-18T16:58:48.342Z,4.43
2022-12-18T17:01:17.056Z,4.03
2022-12-18T17:03:47.532Z,3.45
2022-12-18T17:06:16.327Z,3.97
2022-12-18T17:08:44.337Z,4.20
2022-12-18T17:11:14.928Z,4.68
2022-12-18T17:13:42.518Z,4.32
2022-12-18T17:16:10.403Z,4.50
2022-12-18T17:18:39.194Z,3.85
2022-12-18T17:21:13.691Z,4.28
2022-12-18T17:23:46.997Z,4.03
2022-12-18T17:26:18.933Z,3.78
2022-12-18T17:28:49.582Z,3.85
2022-12-18T17:31:21.889Z,3.80
2022-12-18T17:33:52.921Z,5.25
2022-12-18T17:36:25.022Z,5.20
2022-12-18T17:38:54.090Z,5.13
2022-12-18T17:41:22.304Z,4.47
2022-12-18T17:44:00.248Z,6.03
2022-12-18T17:46:31.276Z,5.32
2022-12-18T17:49:01.273Z,4.55
2022-12-18T17:51:32.083Z,4.93
2022-12-18T17:54:05.020Z,4.00
2022-12-18T17:56:33.002Z,5.32
2022-12-18T17:59:03.499Z,4.25
2022-12-18T18:01:33.470Z,5.13
2022-12-18T18:04:04.733Z,4.60
2022-12-18T18:06:34.559Z,5.20
2022-12-18T18:09:12.948Z,3.90
2022-12-18T18:12:03.074Z,4.18
2022-12-18T18:14:32.809Z,4.32
2022-12-18T18:17:04.204Z,5.30
2022-12-18T18:19:33.256Z,4.80
2022-12-18T18:22:00.497Z,4.45
2022-12-18T18:24:28.459Z,5.15
2022-12-18T18:26:59.611Z,4.95
2022-12-18T18:29:28.627Z,4.80
2022-12-18T18:31:57.117Z,3.55
2022-12-18T18:34:26.514Z,3.58
2022-12-18T18:36:54.078Z,3.60
2022-12-18T18:39:21.311Z,5.30
2022-12-18T18:41:49.340Z,3.83
2022-12-18T18:44:18.196Z,5.53
2022-12-18T18:46:46.733Z,5.13
2022-12-18T18:49:14.639Z,5.00
2022-12-18T18:51:42.434Z,4.47
2022-12-18T18:54:10.376Z,5.53
2022-12-18T18:57:04.139Z,5.28
2022-12-18T18:59:31.641Z,5.10
2022-12-18T19:02:04.437Z,5.03
2022-12-18T19:04:33.650Z,6.13
2022-12-18T19:07:01.090Z,5.13
2022-12-18T19:09:28.627Z,6.03
2022-12-18T19:12:15.211Z,6.30
2022-12-18T19:14:43.211Z,4.70
2022-12-18T19:17:10.908Z,5.70
2022-12-18T19:19:37.989Z,4.85
2022-12-18T19:22:05.479Z,5.25
2022-12-18T19:24:32.815Z,6.78
2022-12-18T19:27:00.025Z,5.03
2022-12-18T19:29:27.079Z,6.63
2022-12-18T19:31:54.579Z,5.50
2022-12-18T19:34:21.837Z,5.60
2022-12-18T19:36:48.889Z,4.10
2022-12-18T19:39:19.240Z,7.18
2022-12-18T19:41:47.051Z,5.22
2022-12-18T19:44:17.963Z,4.43
2022-12-18T19:46:48.429Z,5.03
2022-12-18T19:49:18.222Z,5.90
2022-12-18T19:51:46.635Z,4.57
2022-12-18T19:54:17.148Z,5.75
2022-12-18T19:56:45.973Z,6.07
2022-12-18T19:59:13.847Z,5.80
2022-12-18T20:01:41.156Z,6.70
2022-12-18T20:04:08.485Z,6.70
2022-12-18T20:06:47.135Z,5.97
2022-12-18T20:09:14.645Z,5.20
2022-12-18T20:11:42.442Z,6.13
2022-12-18T20:14:14.615Z,5.63
2022-12-18T20:16:45.871Z,6.50
2022-12-18T20:19:14.152Z,5.40
2022-12-18T20:21:42.320Z,6.40
2022-12-18T20:24:09.498Z,6.87
2022-12-18T20:26:36.786Z,6.40
2022-12-18T20:29:03.934Z,5.83
2022-12-18T20:31:31.146Z,5.03
2022-12-18T20:34:01.687Z,6.57
2022-12-18T20:36:31.832Z,7.15
2022-12-18T20:39:01.613Z,4.80
2022-12-18T20:41:37.500Z,6.55
2022-12-18T20:44:21.854Z,6.13
2022-12-18T20:46:58.103Z,5.53
2022-12-18T20:49:26.554Z,6.10
2022-12-18T20:51:56.373Z,6.50
2022-12-18T20:54:25.724Z,8.55
2022-12-18T20:56:52.874Z,7.87
2022-12-18T20:59:20.269Z,8.00
2022-12-18T21:01:48.905Z,6.70
2022-12-18T21:04:18.537Z,6.70
2022-12-18T21:06:52.997Z,8.13
2022-12-18T21:09:21.627Z,6.10
2022-12-18T21:12:07.596Z,6.20
2022-12-18T21:14:35.787Z,7.38
2022-12-18T21:17:03.041Z,7.57
2022-12-18T21:19:30.306Z,4.87
2022-12-18T21:21:58.117Z,5.23
2022-12-18T21:24:26.263Z,6.97
2022-12-18T21:26:55.770Z,6.07
2022-12-18T21:29:25.055Z,7.13
2022-12-18T21:31:54.660Z,5.80
2022-12-18T21:34:27.545Z,6.00
2022-12-18T21:36:56.401Z,7.68
2022-12-18T21:39:25.352Z,7.43
2022-12-18T21:42:11.820Z,6.83
2022-12-18T21:44:41.801Z,5.33
2022-12-18T21:47:21.497Z,7.60
2022-12-18T21:49:53.096Z,5.90
2022-12-18T21:52:29.811Z,7.00
2022-12-18T21:55:09.162Z,8.00
2022-12-18T21:57:39.448Z,5.53
2022-12-18T22:00:11.573Z,6.63
2022-12-18T22:02:46.005Z,6.53
2022-12-18T22:05:13.208Z,7.00
2022-12-18T22:07:40.547Z,7.40
2022-12-18T22:10:08.088Z,6.10
2022-12-18T22:12:43.285Z,6.80
2022-12-18T22:15:21.234Z,7.10
2022-12-18T22:17:52.694Z,6.27
2022-12-18T22:20:27.277Z,6.20
2022-12-18T22:22:54.281Z,7.07
2022-12-18T22:25:21.283Z,5.90
2022-12-18T22:28:08.236Z,5.80
2022-12-18T22:30:35.890Z,7.03
2022-12-18T22:33:03.661Z,6.60
2022-12-18T22:35:30.693Z,5.07
2022-12-18T22:38:00.624Z,6.17
2022-12-18T22:40:28.436Z,4.60
2022-12-18T22:42:56.119Z,6.00
2022-12-18T22:45:24.200Z,5.27
2022-12-18T22:47:51.352Z,6.00
2022-12-18T22:50:18.472Z,6.00
2022-12-18T22:52:45.517Z,6.10
2022-12-18T22:55:12.563Z,5.43
2022-12-18T22:57:41.439Z,5.90
2022-12-18T23:00:16.370Z,6.17
2022-12-18T23:02:45.110Z,6.20
2022-12-18T23:05:12.281Z,5.23
2022-12-18T23:07:39.261Z,5.17
2022-12-18T23:10:06.682Z,5.50
2022-12-18T23:12:33.658Z,4.70
2022-12-18T23:15:03.831Z,5.57
2022-12-18T23:17:31.665Z,5.90
2022-12-18T23:19:58.687Z,4.37
2022-12-18T23:22:25.660Z,5.57
2022-12-18T23:24:52.681Z,4.53
2022-12-18T23:27:19.815Z,5.07
2022-12-18T23:29:46.787Z,4.67
2022-12-18T23:32:14.945Z,3.37
2022-12-18T23:34:42.013Z,4.93
2022-12-18T23:37:09.001Z,4.67
2022-12-18T23:39:36.087Z,5.33
2022-12-18T23:42:03.155Z,3.97
2022-12-18T23:44:30.144Z,5.70
2022-12-18T23:46:57.193Z,5.00
2022-12-18T23:49:24.270Z,6.37
2022-12-18T23:51:53.533Z,5.63
2022-12-18T23:54:32.637Z,4.10
2022-12-18T23:57:01.091Z,4.80
2022-12-18T23:59:28.090Z,5.20
